createdAt,value
2018-10-19T00:01:35.319Z,35.03
2018-10-19T00:04:03.837Z,34.80
2018-10-19T00:06:32.213Z,36.23
2018-10-19T00:09:00.637Z,37.80
2018-10-19T00:11:29.033Z,35.20
2018-10-19T00:13:57.489Z,37.07
2018-10-19T00:16:25.995Z,40.87
2018-10-19T00:18:54.437Z,41.93
2018-10-19T00:21:22.822Z,41.07
2018-10-19T00:23:51.261Z,43.60
2018-10-19T00:26:19.683Z,41.53
2018-10-19T00:28:48.072Z,40.10
2018-10-19T00:31:16.595Z,40.07
2018-10-19T00:33:45.014Z,37.87
2018-10-19T00:36:13.433Z,38.60
2018-10-19T00:38:41.795Z,40.10
2018-10-19T00:41:10.232Z,36.63
2018-10-19T00:43:38.628Z,38.00
2018-10-19T00:46:07.059Z,36.33
2018-10-19T00:48:35.447Z,37.60
2018-10-19T00:51:04.141Z,36.70
2018-10-19T00:53:32.517Z,37.83
2018-10-19T00:56:00.950Z,36.87
2018-10-19T00:58:29.355Z,37.07
2018-10-19T01:00:57.769Z,37.97
2018-10-19T01:03:26.107Z,38.73
2018-10-19T01:05:54.538Z,37.00
2018-10-19T01:08:22.988Z,38.13
2018-10-19T01:10:51.304Z,39.37
2018-10-19T01:13:19.630Z,36.70
2018-10-19T01:15:48.091Z,38.13
2018-10-19T01:18:16.590Z,37.33
2018-10-19T01:20:44.966Z,37.37
2018-10-19T01:23:13.446Z,36.70
2018-10-19T01:25:42.720Z,39.60
2018-10-19T01:28:11.638Z,35.80
2018-10-19T01:30:40.324Z,37.30
2018-10-19T01:33:08.775Z,38.53
2018-10-19T01:35:37.127Z,37.33
2018-10-19T01:38:05.513Z,37.00
2018-10-19T01:40:33.856Z,37.00
2018-10-19T01:43:02.268Z,36.43
2018-10-19T01:45:30.666Z,35.43
2018-10-19T01:47:59.136Z,35.27
2018-10-19T01:50:27.503Z,36.90
2018-10-19T01:52:55.883Z,35.93
2018-10-19T01:55:24.233Z,36.40
2018-10-19T01:57:52.583Z,34.73
2018-10-19T02:00:21.003Z,34.30
2018-10-19T02:02:49.503Z,36.87
2018-10-19T02:05:17.828Z,36.73
2018-10-19T02:07:46.241Z,34.60
2018-10-19T02:10:14.589Z,34.93
2018-10-19T02:12:42.923Z,35.90
2018-10-19T02:15:11.406Z,38.40
2018-10-19T02:17:39.701Z,36.10
2018-10-19T02:20:08.117Z,36.33
2018-10-19T02:22:36.450Z,39.50
2018-10-19T02:25:05.209Z,40.33
2018-10-19T02:27:33.568Z,38.53
2018-10-19T02:30:01.980Z,36.80
2018-10-19T02:32:30.367Z,36.20
2018-10-19T02:34:58.721Z,35.40
2018-10-19T02:37:27.007Z,35.83
2018-10-19T02:39:55.335Z,36.87
2018-10-19T02:42:23.761Z,35.00
2018-10-19T02:44:52.187Z,37.70
2018-10-19T02:47:20.560Z,35.23
2018-10-19T02:49:48.861Z,33.73
2018-10-19T02:52:17.208Z,37.77
2018-10-19T02:54:45.503Z,37.87
2018-10-19T02:57:13.904Z,37.80
2018-10-19T02:59:42.233Z,37.20
2018-10-19T03:02:10.485Z,38.03
2018-10-19T03:04:38.811Z,39.00
2018-10-19T03:07:07.729Z,38.03
2018-10-19T03:09:36.012Z,35.03
2018-10-19T03:12:04.319Z,37.33
2018-10-19T03:14:32.681Z,36.00
2018-10-19T03:17:01.064Z,35.90
2018-10-19T03:19:29.401Z,32.63
2018-10-19T03:21:57.863Z,34.40
2018-10-19T03:24:26.225Z,35.30
2018-10-19T03:26:54.627Z,33.10
2018-10-19T03:29:22.980Z,33.70
2018-10-19T03:31:51.351Z,34.07
2018-10-19T03:34:19.733Z,34.80
2018-10-19T03:36:48.060Z,36.83
2018-10-19T03:39:16.485Z,34.13
2018-10-19T03:41:44.794Z,37.50
2018-10-19T03:44:13.220Z,35.20
2018-10-19T03:46:41.602Z,34.97
2018-10-19T03:49:10.042Z,36.23
2018-10-19T03:51:38.440Z,38.00
2018-10-19T03:54:06.979Z,35.10
2018-10-19T03:56:35.345Z,36.37
2018-10-19T03:59:04.137Z,35.17
2018-10-19T04:01:32.459Z,39.37
2018-10-19T04:04:00.871Z,38.00
2018-10-19T04:06:29.336Z,35.80
2018-10-19T04:08:57.750Z,34.67
2018-10-19T04:11:26.236Z,35.23
2018-10-19T04:13:54.554Z,35.87
2018-10-19T04:16:23.343Z,35.57
2018-10-19T04:18:51.890Z,37.13
2018-10-19T04:21:20.369Z,40.27
2018-10-19T04:23:48.701Z,43.37
2018-10-19T04:26:17.085Z,42.10
2018-10-19T04:28:45.460Z,42.50
2018-10-19T04:31:13.774Z,43.10
2018-10-19T04:33:42.122Z,43.30
2018-10-19T04:36:10.861Z,41.10
2018-10-19T04:38:39.278Z,42.27
2018-10-19T04:41:07.597Z,41.97
2018-10-19T04:43:36.023Z,42.40
2018-10-19T04:46:04.859Z,42.93
2018-10-19T04:48:33.232Z,43.87
2018-10-19T04:51:01.742Z,43.30
2018-10-19T04:53:30.092Z,42.20
2018-10-19T04:55:58.444Z,43.93
2018-10-19T04:58:26.817Z,41.90
2018-10-19T05:00:55.344Z,43.33
2018-10-19T05:03:23.747Z,42.70
2018-10-19T05:05:52.194Z,44.63
2018-10-19T05:08:20.800Z,41.97
2018-10-19T05:10:48.955Z,42.33
2018-10-19T05:13:17.387Z,42.03
2018-10-19T05:15:45.740Z,43.40
2018-10-19T05:18:14.078Z,43.80
2018-10-19T05:20:42.505Z,43.40
2018-10-19T05:23:10.911Z,41.20
2018-10-19T05:25:39.188Z,43.67
2018-10-19T05:28:07.561Z,43.67
2018-10-19T05:30:35.949Z,40.17
2018-10-19T05:33:04.585Z,40.33
2018-10-19T05:35:32.969Z,43.80
2018-10-19T05:38:01.416Z,42.50
2018-10-19T05:40:29.757Z,42.50
2018-10-19T05:42:58.245Z,38.37
2018-10-19T05:45:26.708Z,39.40
2018-10-19T05:47:55.161Z,39.60
2018-10-19T05:50:23.504Z,37.47
2018-10-19T05:52:51.873Z,37.40
2018-10-19T05:55:20.283Z,37.60
2018-10-19T05:57:48.735Z,36.70
2018-10-19T06:00:17.144Z,42.43
2018-10-19T06:02:47.249Z,39.00
2018-10-19T06:05:15.732Z,40.53
2018-10-19T06:07:44.157Z,41.13
2018-10-19T06:10:12.606Z,37.40
2018-10-19T06:12:40.951Z,38.43
2018-10-19T06:15:09.855Z,36.87
2018-10-19T06:17:38.275Z,43.50
2018-10-19T06:20:07.030Z,45.20
2018-10-19T06:22:35.410Z,50.77
2018-10-19T06:25:03.822Z,53.77
2018-10-19T06:27:32.134Z,55.07
2018-10-19T06:30:00.533Z,55.40
2018-10-19T06:32:28.942Z,54.97
2018-10-19T06:34:57.410Z,58.37
2018-10-19T06:37:25.857Z,59.70
2018-10-19T06:39:54.335Z,55.90
2018-10-19T06:42:22.986Z,54.57
2018-10-19T06:44:51.406Z,53.90
2018-10-19T06:47:19.858Z,52.37
2018-10-19T06:49:48.785Z,52.80
2018-10-19T06:52:17.178Z,54.67
2018-10-19T06:54:45.544Z,56.80
2018-10-19T06:57:13.911Z,55.30
2018-10-19T06:59:42.280Z,56.60
2018-10-19T07:02:10.706Z,54.20
2018-10-19T07:04:39.114Z,53.00
2018-10-19T07:07:07.488Z,54.60
2018-10-19T07:09:35.894Z,53.27
2018-10-19T07:12:04.687Z,54.70
2018-10-19T07:14:33.105Z,54.43
2018-10-19T07:17:01.619Z,51.83
2018-10-19T07:19:30.064Z,53.20
2018-10-19T07:21:58.468Z,51.77
2018-10-19T07:24:26.860Z,53.40
2018-10-19T07:26:55.185Z,55.13
2018-10-19T07:29:23.705Z,53.30
2018-10-19T07:31:53.041Z,52.23
2018-10-19T07:34:21.357Z,52.43
2018-10-19T07:36:49.742Z,52.47
2018-10-19T07:39:18.070Z,52.47
2018-10-19T07:41:46.378Z,49.43
2018-10-19T07:44:14.907Z,52.87
2018-10-19T07:46:43.384Z,53.83
2018-10-19T07:49:11.764Z,53.00
2018-10-19T07:51:40.111Z,50.90
2018-10-19T07:54:08.546Z,51.53
2018-10-19T07:56:36.903Z,47.83
2018-10-19T07:59:06.339Z,52.50
2018-10-19T08:01:34.727Z,49.27
2018-10-19T08:04:03.251Z,49.07
2018-10-19T08:06:31.814Z,46.10
2018-10-19T08:09:02.215Z,48.40
2018-10-19T08:11:32.394Z,47.57
2018-10-19T08:14:04.412Z,49.87
2018-10-19T08:16:32.928Z,52.63
2018-10-19T08:19:01.261Z,53.17
2018-10-19T08:21:29.603Z,50.67
2018-10-19T08:23:57.933Z,51.37
2018-10-19T08:26:26.350Z,50.80
2018-10-19T08:28:54.761Z,50.00
2018-10-19T08:31:23.158Z,51.00
2018-10-19T08:33:51.773Z,51.17
2018-10-19T08:36:20.148Z,52.10
2018-10-19T08:38:48.554Z,55.67
2018-10-19T08:41:17.101Z,53.30
2018-10-19T08:43:46.457Z,50.80
2018-10-19T08:46:20.113Z,49.10
2018-10-19T08:48:48.567Z,50.20
2018-10-19T08:51:17.167Z,53.43
2018-10-19T08:53:45.527Z,52.20
2018-10-19T08:56:13.962Z,58.00
2018-10-19T08:58:42.433Z,54.07
2018-10-19T09:01:10.799Z,50.80
2018-10-19T09:03:39.182Z,50.17
2018-10-19T09:06:07.713Z,49.13
2018-10-19T09:08:36.136Z,50.37
2018-10-19T09:11:04.772Z,50.80
2018-10-19T09:13:33.203Z,49.80
2018-10-19T09:16:01.650Z,52.33
2018-10-19T09:18:30.168Z,55.07
2018-10-19T09:20:58.525Z,53.20
2018-10-19T09:23:27.026Z,53.50
2018-10-19T09:25:55.419Z,57.07
2018-10-19T09:28:24.093Z,54.77
2018-10-19T09:30:52.547Z,57.10
2018-10-19T09:33:21.009Z,55.67
2018-10-19T09:35:49.453Z,59.20
2018-10-19T09:38:17.891Z,61.43
2018-10-19T09:40:47.095Z,59.50
2018-10-19T09:43:15.579Z,61.50
2018-10-19T09:45:43.918Z,64.27
2018-10-19T09:48:12.313Z,60.20
2018-10-19T09:50:40.731Z,65.17
2018-10-19T09:53:09.181Z,68.87
2018-10-19T09:55:37.531Z,63.33
2018-10-19T09:58:05.925Z,60.10
2018-10-19T10:00:39.733Z,59.27
2018-10-19T10:03:08.263Z,60.07
2018-10-19T10:05:36.572Z,63.87
2018-10-19T10:08:05.256Z,62.33
2018-10-19T10:10:33.569Z,64.53
2018-10-19T10:13:01.963Z,62.13
2018-10-19T10:15:30.274Z,58.67
2018-10-19T10:17:58.771Z,57.80
2018-10-19T10:20:27.098Z,58.03
2018-10-19T10:22:55.510Z,59.73
2018-10-19T10:25:24.030Z,57.30
2018-10-19T10:27:52.302Z,58.27
2018-10-19T10:30:20.689Z,56.07
2018-10-19T10:32:49.080Z,58.70
2018-10-19T10:35:17.467Z,59.83
2018-10-19T10:37:45.852Z,56.83
2018-10-19T10:40:14.377Z,58.40
2018-10-19T10:42:42.726Z,54.90
2018-10-19T10:45:11.193Z,53.40
2018-10-19T10:47:39.671Z,55.70
2018-10-19T10:50:08.017Z,54.73
2018-10-19T10:52:36.519Z,55.70
2018-10-19T10:55:05.188Z,55.23
2018-10-19T10:57:33.571Z,53.87
2018-10-19T11:00:01.990Z,53.87
2018-10-19T11:02:30.303Z,53.20
2018-10-19T11:04:58.674Z,53.97
2018-10-19T11:07:27.280Z,52.83
2018-10-19T11:09:55.562Z,55.03
2018-10-19T11:12:24.357Z,55.97
2018-10-19T11:14:52.693Z,56.40
2018-10-19T11:17:21.159Z,54.30
2018-10-19T11:19:49.563Z,54.50
2018-10-19T11:22:18.028Z,52.40
2018-10-19T11:24:46.449Z,50.93
2018-10-19T11:27:14.817Z,54.30
2018-10-19T11:29:43.591Z,53.93
2018-10-19T11:32:11.960Z,51.00
2018-10-19T11:34:40.397Z,56.47
2018-10-19T11:37:08.849Z,55.70
2018-10-19T11:39:46.907Z,56.20
2018-10-19T11:42:15.331Z,52.63
2018-10-19T11:44:43.749Z,52.80
2018-10-19T11:47:12.123Z,52.13
2018-10-19T11:49:40.453Z,53.67
2018-10-19T11:52:08.871Z,52.50
2018-10-19T11:54:37.196Z,53.73
2018-10-19T11:57:05.928Z,53.93
2018-10-19T11:59:34.297Z,52.50
2018-10-19T12:02:02.714Z,55.40
2018-10-19T12:04:31.123Z,56.10
2018-10-19T12:06:59.502Z,55.90
2018-10-19T12:09:27.831Z,57.97
2018-10-19T12:11:56.440Z,58.03
2018-10-19T12:14:24.815Z,63.60
2018-10-19T12:16:53.233Z,59.17
2018-10-19T12:19:21.699Z,58.90
2018-10-19T12:21:50.096Z,60.70
2018-10-19T12:24:18.584Z,62.60
2018-10-19T12:26:47.076Z,62.87
2018-10-19T12:29:15.499Z,65.67
2018-10-19T12:31:43.911Z,63.30
2018-10-19T12:34:12.430Z,66.17
2018-10-19T12:36:40.874Z,63.50
2018-10-19T12:39:10.224Z,63.37
2018-10-19T12:41:38.663Z,67.63
2018-10-19T12:44:07.033Z,68.00
2018-10-19T12:46:48.009Z,68.40
2018-10-19T12:49:19.870Z,65.10
2018-10-19T12:51:48.159Z,62.70
2018-10-19T12:54:16.847Z,65.30
2018-10-19T12:56:45.245Z,67.67
2018-10-19T12:59:13.739Z,63.40
2018-10-19T13:01:42.081Z,66.20
2018-10-19T13:04:10.482Z,62.57
2018-10-19T13:06:38.910Z,64.30
2018-10-19T13:09:11.123Z,62.83
2018-10-19T13:11:39.532Z,67.97
2018-10-19T13:14:07.935Z,65.17
2018-10-19T13:16:36.322Z,67.50
2018-10-19T13:19:04.928Z,65.20
2018-10-19T13:21:33.289Z,64.60
2018-10-19T13:24:01.739Z,65.57
2018-10-19T13:26:30.074Z,64.70
2018-10-19T13:28:58.457Z,64.30
2018-10-19T13:31:26.857Z,67.03
2018-10-19T13:33:55.251Z,62.40
2018-10-19T13:36:23.681Z,62.17
2018-10-19T13:38:52.023Z,63.30
2018-10-19T13:41:20.350Z,65.20
2018-10-19T13:43:48.768Z,63.20
2018-10-19T13:46:17.233Z,63.00
2018-10-19T13:48:45.588Z,62.97
2018-10-19T13:51:14.060Z,62.80
2018-10-19T13:53:42.319Z,58.73
2018-10-19T13:56:10.686Z,57.23
2018-10-19T13:58:39.070Z,59.27
2018-10-19T14:01:07.703Z,58.40
2018-10-19T14:03:36.262Z,58.63
2018-10-19T14:06:04.729Z,57.10
2018-10-19T14:08:33.090Z,57.90
2018-10-19T14:11:01.648Z,52.80
2018-10-19T14:13:29.982Z,52.77
2018-10-19T14:15:58.443Z,52.00
2018-10-19T14:18:26.777Z,50.43
2018-10-19T14:20:55.248Z,49.97
2018-10-19T14:23:23.650Z,52.30
2018-10-19T14:25:52.007Z,49.50
2018-10-19T14:28:20.381Z,48.23
2018-10-19T14:30:48.806Z,48.57
2018-10-19T14:33:17.303Z,47.13
2018-10-19T14:35:45.539Z,50.20
2018-10-19T14:38:13.932Z,48.07
2018-10-19T14:40:42.340Z,49.70
2018-10-19T14:43:10.759Z,50.10
2018-10-19T14:45:39.075Z,47.50
2018-10-19T14:48:07.515Z,47.60
2018-10-19T14:50:35.925Z,47.93
2018-10-19T14:53:04.490Z,50.67
2018-10-19T14:55:32.879Z,48.73
2018-10-19T14:58:01.327Z,49.87
2018-10-19T15:00:29.733Z,50.57
2018-10-19T15:02:58.169Z,50.03
2018-10-19T15:05:26.586Z,50.67
2018-10-19T15:07:54.940Z,49.30
2018-10-19T15:10:23.506Z,49.20
2018-10-19T15:12:51.823Z,49.23
2018-10-19T15:15:21.650Z,49.93
2018-10-19T15:17:50.107Z,52.47
2018-10-19T15:20:18.749Z,51.00
2018-10-19T15:22:47.892Z,47.37
2018-10-19T15:25:16.416Z,52.80
2018-10-19T15:27:46.171Z,55.30
2018-10-19T15:30:16.503Z,52.13
2018-10-19T15:32:44.782Z,50.50
2018-10-19T15:35:13.262Z,51.47
2018-10-19T15:37:41.975Z,52.10
2018-10-19T15:40:11.167Z,53.40
2018-10-19T15:42:40.147Z,52.50
2018-10-19T15:45:10.648Z,53.87
2018-10-19T15:47:39.159Z,50.00
2018-10-19T15:50:08.376Z,50.77
2018-10-19T15:52:36.843Z,54.53
2018-10-19T15:55:05.902Z,53.27
2018-10-19T15:57:34.381Z,55.13
2018-10-19T16:00:03.205Z,53.50
2018-10-19T16:02:34.399Z,55.13
2018-10-19T16:05:02.762Z,54.70
2018-10-19T16:07:31.179Z,56.47
2018-10-19T16:10:00.677Z,58.97
2018-10-19T16:12:29.817Z,59.43
2018-10-19T16:15:06.757Z,58.27
2018-10-19T16:17:35.098Z,60.97
2018-10-19T16:20:04.768Z,62.50
2018-10-19T16:22:33.696Z,64.07
2018-10-19T16:25:02.504Z,60.37
2018-10-19T16:27:31.408Z,60.00
2018-10-19T16:29:59.953Z,60.17
2018-10-19T16:32:28.651Z,62.27
2018-10-19T16:34:57.933Z,60.90
2018-10-19T16:37:26.267Z,61.30
2018-10-19T16:39:54.668Z,63.40
2018-10-19T16:42:23.104Z,61.03
2018-10-19T16:44:51.444Z,60.57
2018-10-19T16:47:19.928Z,59.67
2018-10-19T16:49:48.299Z,60.93
2018-10-19T16:52:16.889Z,59.17
2018-10-19T16:54:45.223Z,64.10
2018-10-19T16:57:13.703Z,63.33
2018-10-19T16:59:42.016Z,62.50
2018-10-19T17:02:10.339Z,58.90
2018-10-19T17:04:38.708Z,61.40
2018-10-19T17:07:07.299Z,63.17
2018-10-19T17:09:35.666Z,63.23
2018-10-19T17:12:04.192Z,62.73
2018-10-19T17:14:32.579Z,65.37
2018-10-19T17:17:01.566Z,63.33
2018-10-19T17:19:29.873Z,67.27
2018-10-19T17:21:58.327Z,64.97
2018-10-19T17:24:26.659Z,65.20
2018-10-19T17:26:55.139Z,64.33
2018-10-19T17:29:23.521Z,63.63
2018-10-19T17:31:52.092Z,67.00
2018-10-19T17:34:20.590Z,65.47
2018-10-19T17:36:49.203Z,68.53
2018-10-19T17:39:17.650Z,67.97
2018-10-19T17:41:46.037Z,66.67
2018-10-19T17:44:14.473Z,67.80
2018-10-19T17:46:42.936Z,65.20
2018-10-19T17:49:11.397Z,62.83
2018-10-19T17:51:39.725Z,63.07
2018-10-19T17:54:08.153Z,64.37
2018-10-19T17:56:36.532Z,63.23
2018-10-19T17:59:05.163Z,62.40
2018-10-19T18:01:33.973Z,66.57
2018-10-19T18:04:02.518Z,65.17
2018-10-19T18:06:30.866Z,65.50
2018-10-19T18:08:59.301Z,67.23
2018-10-19T18:11:27.658Z,64.27
2018-10-19T18:13:56.073Z,63.00
2018-10-19T18:16:24.457Z,63.80
2018-10-19T18:18:52.868Z,63.50
2018-10-19T18:21:21.313Z,64.43
2018-10-19T18:23:49.812Z,62.80
2018-10-19T18:26:18.218Z,67.90
2018-10-19T18:28:46.572Z,65.27
2018-10-19T18:31:15.016Z,68.47
2018-10-19T18:33:43.428Z,67.33
2018-10-19T18:36:11.817Z,67.10
2018-10-19T18:38:40.199Z,70.03
2018-10-19T18:41:08.650Z,67.93
2018-10-19T18:43:37.065Z,70.23
2018-10-19T18:46:05.698Z,69.83
2018-10-19T18:48:34.091Z,66.40
2018-10-19T18:51:02.575Z,65.83
2018-10-19T18:53:30.923Z,62.57
2018-10-19T18:55:59.441Z,67.27
2018-10-19T18:58:27.851Z,64.03
2018-10-19T19:00:56.229Z,65.33
2018-10-19T19:03:24.656Z,70.63
2018-10-19T19:05:53.054Z,69.80
2018-10-19T19:08:22.407Z,69.40
2018-10-19T19:10:50.768Z,67.30
2018-10-19T19:13:24.570Z,65.10
2018-10-19T19:15:52.941Z,68.10
2018-10-19T19:18:21.339Z,65.13
2018-10-19T19:20:49.702Z,63.93
2018-10-19T19:23:18.130Z,69.07
2018-10-19T19:25:51.956Z,67.27
2018-10-19T19:28:20.336Z,67.40
2018-10-19T19:30:48.702Z,67.03
2018-10-19T19:33:22.577Z,67.17
2018-10-19T19:35:51.192Z,66.27
2018-10-19T19:38:19.894Z,66.73
2018-10-19T19:40:53.751Z,71.50
2018-10-19T19:43:22.195Z,71.57
2018-10-19T19:45:50.682Z,71.40
2018-10-19T19:48:24.437Z,70.90
2018-10-19T19:50:52.867Z,74.07
2018-10-19T19:53:21.335Z,70.43
2018-10-19T19:55:50.483Z,68.47
2018-10-19T19:58:18.860Z,72.40
2018-10-19T20:00:47.218Z,70.30
2018-10-19T20:03:15.632Z,69.53
2018-10-19T20:05:44.048Z,68.57
2018-10-19T20:08:12.503Z,67.13
2018-10-19T20:10:40.811Z,64.87
2018-10-19T20:13:09.180Z,68.40
2018-10-19T20:15:37.580Z,67.57
2018-10-19T20:18:05.991Z,71.20
2018-10-19T20:20:34.315Z,66.43
2018-10-19T20:23:02.899Z,68.87
2018-10-19T20:25:31.253Z,67.60
2018-10-19T20:27:59.697Z,66.70
2018-10-19T20:30:28.062Z,69.20
2018-10-19T20:32:56.482Z,69.33
2018-10-19T20:35:24.888Z,69.77
2018-10-19T20:37:53.419Z,69.97
2018-10-19T20:40:21.756Z,72.57
2018-10-19T20:42:50.117Z,72.93
2018-10-19T20:45:18.517Z,72.70
2018-10-19T20:47:46.813Z,65.70
2018-10-19T20:50:15.196Z,69.07
2018-10-19T20:52:43.614Z,65.77
2018-10-19T20:55:11.979Z,66.13
2018-10-19T20:57:40.344Z,64.93
2018-10-19T21:00:09.215Z,63.17
2018-10-19T21:02:38.085Z,64.67
2018-10-19T21:05:07.919Z,68.50
2018-10-19T21:07:36.748Z,63.57
2018-10-19T21:10:07.149Z,63.83
2018-10-19T21:12:35.812Z,69.73
2018-10-19T21:15:05.067Z,67.57
2018-10-19T21:17:33.414Z,66.53
2018-10-19T21:20:02.173Z,64.90
2018-10-19T21:22:30.645Z,67.50
2018-10-19T21:24:59.055Z,67.20
2018-10-19T21:27:27.425Z,67.87
2018-10-19T21:29:56.045Z,71.03
2018-10-19T21:32:24.511Z,71.93
2018-10-19T21:34:53.108Z,65.30
2018-10-19T21:37:21.573Z,64.70
2018-10-19T21:39:50.282Z,66.87
2018-10-19T21:42:18.953Z,64.53
2018-10-19T21:44:47.410Z,68.83
2018-10-19T21:47:15.903Z,65.17
2018-10-19T21:49:44.271Z,66.77
2018-10-19T21:52:12.688Z,68.23
2018-10-19T21:54:41.121Z,68.47
2018-10-19T21:57:10.299Z,68.47
2018-10-19T21:59:38.600Z,70.00
2018-10-19T22:02:07.054Z,69.27
2018-10-19T22:04:36.178Z,71.63
2018-10-19T22:07:04.845Z,72.20
2018-10-19T22:09:33.411Z,69.57
2018-10-19T22:12:01.783Z,70.60
2018-10-19T22:14:30.100Z,73.57
2018-10-19T22:16:58.515Z,75.00
2018-10-19T22:19:26.925Z,72.67
2018-10-19T22:21:55.285Z,73.97
2018-10-19T22:24:23.663Z,73.90
2018-10-19T22:26:52.137Z,73.37
2018-10-19T22:29:20.900Z,72.20
2018-10-19T22:31:49.288Z,71.23
2018-10-19T22:34:17.627Z,74.63
2018-10-19T22:36:46.033Z,73.37
2018-10-19T22:39:14.382Z,71.73
2018-10-19T22:41:42.788Z,69.43
2018-10-19T22:44:11.561Z,68.70
2018-10-19T22:46:40.191Z,68.53
2018-10-19T22:49:08.739Z,67.17
2018-10-19T22:51:37.080Z,62.83
2018-10-19T22:54:05.829Z,66.93
2018-10-19T22:56:34.981Z,67.07
2018-10-19T22:59:03.341Z,66.50
2018-10-19T23:01:31.646Z,68.03
2018-10-19T23:04:00.054Z,70.33
2018-10-19T23:06:28.473Z,68.27
2018-10-19T23:08:56.861Z,70.27
2018-10-19T23:11:25.276Z,70.30
2018-10-19T23:13:53.697Z,71.83
2018-10-19T23:16:22.140Z,69.70
2018-10-19T23:18:50.581Z,68.30
2018-10-19T23:21:19.025Z,69.70
2018-10-19T23:23:47.413Z,67.67
2018-10-19T23:26:15.841Z,67.50
2018-10-19T23:28:44.214Z,65.77
2018-10-19T23:31:12.653Z,66.70
2018-10-19T23:33:40.974Z,66.63
2018-10-19T23:36:09.338Z,70.63
2018-10-19T23:38:37.653Z,66.83
2018-10-19T23:41:06.154Z,67.20
2018-10-19T23:43:34.557Z,72.47
2018-10-19T23:46:02.902Z,69.30
2018-10-19T23:48:31.297Z,74.20
2018-10-19T23:50:59.747Z,74.27
2018-10-19T23:53:28.097Z,73.80
2018-10-19T23:55:56.537Z,73.43
2018-10-19T23:58:24.958Z,70.37
